sensor_id;sensor_type;location;lat;lon;timestamp;temperature;humidity
3281;DHT22;1652;51.318;6.202;2023-06-14T00:00:15;18.70;28.20
3281;DHT22;1652;51.318;6.202;2023-06-14T00:02:43;18.80;1.00
3281;DHT22;1652;51.318;6.202;2023-06-14T00:05:10;18.80;44.60
3281;DHT22;1652;51.318;6.202;2023-06-14T00:07:40;18.90;1.00
3281;DHT22;1652;51.318;6.202;2023-06-14T00:10:11;18.80;21.20
3281;DHT22;1652;51.318;6.202;2023-06-14T00:12:39;18.80;1.00
3281;DHT22;1652;51.318;6.202;2023-06-14T00:15:07;18.80;68.70
3281;DHT22;1652;51.318;6.202;2023-06-14T00:17:36;18.80;1.00
3281;DHT22;1652;51.318;6.202;2023-06-14T00:20:06;18.70;1.00
3281;DHT22;1652;51.318;6.202;2023-06-14T00:22:33;18.60;97.70
3281;DHT22;1652;51.318;6.202;2023-06-14T00:25:00;18.60;99.90
3281;DHT22;1652;51.318;6.202;2023-06-14T00:27:45;18.50;99.90
3281;DHT22;1652;51.318;6.202;2023-06-14T00:30:13;18.60;99.90
3281;DHT22;1652;51.318;6.202;2023-06-14T00:32:40;18.60;99.90
3281;DHT22;1652;51.318;6.202;2023-06-14T00:35:10;18.40;99.90
3281;DHT22;1652;51.318;6.202;2023-06-14T00:37:37;18.40;1.00
3281;DHT22;1652;51.318;6.202;2023-06-14T00:40:05;18.30;1.00
3281;DHT22;1652;51.318;6.202;2023-06-14T00:42:33;18.30;1.00
3281;DHT22;1652;51.318;6.202;2023-06-14T00:45:00;18.30;1.00
3281;DHT22;1652;51.318;6.202;2023-06-14T00:47:27;18.30;1.00
3281;DHT22;1652;51.318;6.202;2023-06-14T00:49:55;18.20;1.00
3281;DHT22;1652;51.318;6.202;2023-06-14T00:52:23;18.20;1.00
3281;DHT22;1652;51.318;6.202;2023-06-14T00:54:50;18.20;1.00
3281;DHT22;1652;51.318;6.202;2023-06-14T00:57:17;18.10;1.00
3281;DHT22;1652;51.318;6.202;2023-06-14T00:59:48;18.10;1.00
3281;DHT22;1652;51.318;6.202;2023-06-14T01:02:16;18.10;99.90
3281;DHT22;1652;51.318;6.202;2023-06-14T01:04:46;18.00;1.00
3281;DHT22;1652;51.318;6.202;2023-06-14T01:12:53;18.00;1.00
3281;DHT22;1652;51.318;6.202;2023-06-14T01:15:23;17.90;1.00
3281;DHT22;1652;51.318;6.202;2023-06-14T01:17:50;17.90;1.00
3281;DHT22;1652;51.318;6.202;2023-06-14T01:20:21;17.80;1.00
3281;DHT22;1652;51.318;6.202;2023-06-14T01:22:51;17.80;1.00
3281;DHT22;1652;51.318;6.202;2023-06-14T01:25:20;17.70;22.70
3281;DHT22;1652;51.318;6.202;2023-06-14T01:27:51;17.80;1.00
3281;DHT22;1652;51.318;6.202;2023-06-14T01:30:20;17.60;98.60
3281;DHT22;1652;51.318;6.202;2023-06-14T01:32:48;17.60;99.90
3281;DHT22;1652;51.318;6.202;2023-06-14T01:35:17;17.60;99.90
3281;DHT22;1652;51.318;6.202;2023-06-14T01:37:49;17.60;99.90
3281;DHT22;1652;51.318;6.202;2023-06-14T01:40:17;17.60;99.90
3281;DHT22;1652;51.318;6.202;2023-06-14T01:42:46;17.40;1.00
3281;DHT22;1652;51.318;6.202;2023-06-14T01:45:14;17.30;1.00
3281;DHT22;1652;51.318;6.202;2023-06-14T01:47:43;17.30;1.00
3281;DHT22;1652;51.318;6.202;2023-06-14T01:50:10;17.40;1.00
3281;DHT22;1652;51.318;6.202;2023-06-14T01:52:37;17.40;1.00
3281;DHT22;1652;51.318;6.202;2023-06-14T01:55:05;17.50;1.00
3281;DHT22;1652;51.318;6.202;2023-06-14T01:57:32;17.50;1.00
3281;DHT22;1652;51.318;6.202;2023-06-14T01:59:59;17.60;99.90
3281;DHT22;1652;51.318;6.202;2023-06-14T02:02:26;17.60;1.00
3281;DHT22;1652;51.318;6.202;2023-06-14T02:04:53;17.60;1.00
3281;DHT22;1652;51.318;6.202;2023-06-14T02:07:24;17.50;1.00
3281;DHT22;1652;51.318;6.202;2023-06-14T02:09:51;17.20;1.00
3281;DHT22;1652;51.318;6.202;2023-06-14T02:12:18;17.20;1.00
3281;DHT22;1652;51.318;6.202;2023-06-14T02:14:45;17.30;99.90
3281;DHT22;1652;51.318;6.202;2023-06-14T02:17:12;17.50;1.00
3281;DHT22;1652;51.318;6.202;2023-06-14T02:19:39;17.40;99.90
3281;DHT22;1652;51.318;6.202;2023-06-14T02:22:06;17.40;1.00
3281;DHT22;1652;51.318;6.202;2023-06-14T02:24:33;17.30;99.90
3281;DHT22;1652;51.318;6.202;2023-06-14T02:27:00;17.30;1.00
3281;DHT22;1652;51.318;6.202;2023-06-14T02:29:27;17.30;83.60
3281;DHT22;1652;51.318;6.202;2023-06-14T02:31:53;17.30;1.00
3281;DHT22;1652;51.318;6.202;2023-06-14T02:34:20;17.30;1.00
3281;DHT22;1652;51.318;6.202;2023-06-14T02:36:48;17.30;1.00
3281;DHT22;1652;51.318;6.202;2023-06-14T02:39:16;17.20;1.00
3281;DHT22;1652;51.318;6.202;2023-06-14T02:41:44;17.10;99.90
3281;DHT22;1652;51.318;6.202;2023-06-14T02:44:13;17.20;1.00
3281;DHT22;1652;51.318;6.202;2023-06-14T02:46:40;17.20;1.00
3281;DHT22;1652;51.318;6.202;2023-06-14T02:49:07;17.30;99.90
3281;DHT22;1652;51.318;6.202;2023-06-14T02:51:34;17.10;1.00
3281;DHT22;1652;51.318;6.202;2023-06-14T02:54:01;17.00;99.90
3281;DHT22;1652;51.318;6.202;2023-06-14T02:56:28;17.00;99.90
3281;DHT22;1652;51.318;6.202;2023-06-14T02:58:56;17.10;99.90
3281;DHT22;1652;51.318;6.202;2023-06-14T03:01:25;17.10;1.00
3281;DHT22;1652;51.318;6.202;2023-06-14T03:04:01;17.00;26.80
3281;DHT22;1652;51.318;6.202;2023-06-14T03:06:30;17.10;1.00
3281;DHT22;1652;51.318;6.202;2023-06-14T03:08:58;17.00;99.90
3281;DHT22;1652;51.318;6.202;2023-06-14T03:11:31;17.00;97.90
3281;DHT22;1652;51.318;6.202;2023-06-14T03:13:58;16.90;99.90
3281;DHT22;1652;51.318;6.202;2023-06-14T03:16:26;17.00;1.00
3281;DHT22;1652;51.318;6.202;2023-06-14T03:18:56;17.10;1.00
3281;DHT22;1652;51.318;6.202;2023-06-14T03:21:23;16.90;99.90
3281;DHT22;1652;51.318;6.202;2023-06-14T03:23:52;16.70;99.90
3281;DHT22;1652;51.318;6.202;2023-06-14T03:26:19;16.60;99.90
3281;DHT22;1652;51.318;6.202;2023-06-14T03:28:47;16.50;1.00
3281;DHT22;1652;51.318;6.202;2023-06-14T03:31:16;16.60;99.90
3281;DHT22;1652;51.318;6.202;2023-06-14T03:33:43;16.70;1.00
3281;DHT22;1652;51.318;6.202;2023-06-14T03:38:40;16.60;99.90
3281;DHT22;1652;51.318;6.202;2023-06-14T03:41:07;16.70;1.00
3281;DHT22;1652;51.318;6.202;2023-06-14T03:43:34;16.80;1.00
3281;DHT22;1652;51.318;6.202;2023-06-14T03:46:01;17.00;1.00
3281;DHT22;1652;51.318;6.202;2023-06-14T03:48:28;16.90;99.90
3281;DHT22;1652;51.318;6.202;2023-06-14T03:50:55;17.00;1.00
3281;DHT22;1652;51.318;6.202;2023-06-14T03:53:27;17.00;99.90
3281;DHT22;1652;51.318;6.202;2023-06-14T03:55:56;17.00;1.00
3281;DHT22;1652;51.318;6.202;2023-06-14T03:58:23;17.10;1.00
3281;DHT22;1652;51.318;6.202;2023-06-14T04:00:50;17.10;91.40
3281;DHT22;1652;51.318;6.202;2023-06-14T04:03:17;17.50;1.00
3281;DHT22;1652;51.318;6.202;2023-06-14T04:05:46;17.70;99.90
3281;DHT22;1652;51.318;6.202;2023-06-14T04:08:16;18.10;99.90
3281;DHT22;1652;51.318;6.202;2023-06-14T04:10:46;18.50;34.80
3281;DHT22;1652;51.318;6.202;2023-06-14T04:13:12;18.70;1.00
3281;DHT22;1652;51.318;6.202;2023-06-14T04:15:40;19.00;99.90
3281;DHT22;1652;51.318;6.202;2023-06-14T04:18:10;19.50;1.00
3281;DHT22;1652;51.318;6.202;2023-06-14T04:20:37;19.70;1.00
3281;DHT22;1652;51.318;6.202;2023-06-14T04:23:17;20.00;1.00
3281;DHT22;1652;51.318;6.202;2023-06-14T04:25:48;20.40;1.00
3281;DHT22;1652;51.318;6.202;2023-06-14T04:28:16;20.80;99.90
3281;DHT22;1652;51.318;6.202;2023-06-14T04:30:44;20.90;99.90
3281;DHT22;1652;51.318;6.202;2023-06-14T04:33:14;21.50;99.90
3281;DHT22;1652;51.318;6.202;2023-06-14T04:35:42;21.90;99.90
3281;DHT22;1652;51.318;6.202;2023-06-14T04:38:08;22.20;99.90
3281;DHT22;1652;51.318;6.202;2023-06-14T04:40:36;22.40;99.90
3281;DHT22;1652;51.318;6.202;2023-06-14T04:43:09;22.80;99.90
3281;DHT22;1652;51.318;6.202;2023-06-14T04:45:38;22.80;96.20
3281;DHT22;1652;51.318;6.202;2023-06-14T04:48:06;22.70;96.40
3281;DHT22;1652;51.318;6.202;2023-06-14T04:50:33;22.80;90.90
3281;DHT22;1652;51.318;6.202;2023-06-14T04:53:01;23.30;60.20
3281;DHT22;1652;51.318;6.202;2023-06-14T04:55:29;23.60;24.60
3281;DHT22;1652;51.318;6.202;2023-06-14T04:57:56;23.20;27.30
3281;DHT22;1652;51.318;6.202;2023-06-14T05:00:23;23.60;17.60
3281;DHT22;1652;51.318;6.202;2023-06-14T05:02:50;23.70;8.40
3281;DHT22;1652;51.318;6.202;2023-06-14T05:05:18;23.60;1.00
3281;DHT22;1652;51.318;6.202;2023-06-14T05:07:46;23.50;5.60
3281;DHT22;1652;51.318;6.202;2023-06-14T05:10:13;23.20;1.00
3281;DHT22;1652;51.318;6.202;2023-06-14T05:12:40;23.40;20.90
3281;DHT22;1652;51.318;6.202;2023-06-14T05:15:07;23.80;1.00
3281;DHT22;1652;51.318;6.202;2023-06-14T05:17:35;24.20;1.00
3281;DHT22;1652;51.318;6.202;2023-06-14T05:20:03;24.30;1.00
3281;DHT22;1652;51.318;6.202;2023-06-14T05:22:30;24.50;1.00
3281;DHT22;1652;51.318;6.202;2023-06-14T05:24:57;24.20;1.00
3281;DHT22;1652;51.318;6.202;2023-06-14T05:27:24;24.10;1.00
3281;DHT22;1652;51.318;6.202;2023-06-14T05:29:52;24.40;1.00
3281;DHT22;1652;51.318;6.202;2023-06-14T05:32:22;24.30;1.00
3281;DHT22;1652;51.318;6.202;2023-06-14T05:34:49;24.50;1.00
3281;DHT22;1652;51.318;6.202;2023-06-14T05:37:16;24.70;1.00
3281;DHT22;1652;51.318;6.202;2023-06-14T05:39:44;24.90;1.00
3281;DHT22;1652;51.318;6.202;2023-06-14T05:42:11;24.80;1.00
3281;DHT22;1652;51.318;6.202;2023-06-14T05:44:37;24.70;1.00
3281;DHT22;1652;51.318;6.202;2023-06-14T05:47:04;25.20;1.00
3281;DHT22;1652;51.318;6.202;2023-06-14T05:49:31;25.30;1.00
3281;DHT22;1652;51.318;6.202;2023-06-14T05:51:58;25.40;1.00
3281;DHT22;1652;51.318;6.202;2023-06-14T05:54:25;25.40;1.00
3281;DHT22;1652;51.318;6.202;2023-06-14T05:56:52;25.80;1.00
3281;DHT22;1652;51.318;6.202;2023-06-14T05:59:19;26.30;1.00
3281;DHT22;1652;51.318;6.202;2023-06-14T06:01:46;26.80;1.00
3281;DHT22;1652;51.318;6.202;2023-06-14T06:04:13;26.20;1.00
3281;DHT22;1652;51.318;6.202;2023-06-14T06:06:40;25.70;1.00
3281;DHT22;1652;51.318;6.202;2023-06-14T06:09:07;25.60;1.00
3281;DHT22;1652;51.318;6.202;2023-06-14T06:11:33;25.50;1.00
3281;DHT22;1652;51.318;6.202;2023-06-14T06:14:17;26.00;1.00
3281;DHT22;1652;51.318;6.202;2023-06-14T06:16:44;26.40;1.00
3281;DHT22;1652;51.318;6.202;2023-06-14T06:19:12;26.80;1.00
3281;DHT22;1652;51.318;6.202;2023-06-14T06:21:39;27.10;1.00
3281;DHT22;1652;51.318;6.202;2023-06-14T06:24:06;27.40;1.00
3281;DHT22;1652;51.318;6.202;2023-06-14T06:26:33;27.30;1.00
3281;DHT22;1652;51.318;6.202;2023-06-14T06:29:00;26.90;1.00
3281;DHT22;1652;51.318;6.202;2023-06-14T06:31:27;26.90;1.00
3281;DHT22;1652;51.318;6.202;2023-06-14T06:33:54;26.70;1.00
3281;DHT22;1652;51.318;6.202;2023-06-14T06:36:21;26.50;1.00
3281;DHT22;1652;51.318;6.202;2023-06-14T06:38:49;26.60;1.00
3281;DHT22;1652;51.318;6.202;2023-06-14T06:41:15;26.60;1.00
3281;DHT22;1652;51.318;6.202;2023-06-14T06:43:42;26.80;1.00
3281;DHT22;1652;51.318;6.202;2023-06-14T06:46:09;26.50;1.00
3281;DHT22;1652;51.318;6.202;2023-06-14T06:48:36;26.40;1.00
3281;DHT22;1652;51.318;6.202;2023-06-14T06:51:03;26.70;1.00
3281;DHT22;1652;51.318;6.202;2023-06-14T06:53:30;27.20;1.00
3281;DHT22;1652;51.318;6.202;2023-06-14T06:56:08;27.60;1.00
3281;DHT22;1652;51.318;6.202;2023-06-14T06:58:35;27.80;1.00
3281;DHT22;1652;51.318;6.202;2023-06-14T07:01:02;27.70;1.00
3281;DHT22;1652;51.318;6.202;2023-06-14T07:03:28;27.80;1.00
3281;DHT22;1652;51.318;6.202;2023-06-14T07:05:57;27.50;1.00
3281;DHT22;1652;51.318;6.202;2023-06-14T07:08:24;27.40;1.00
3281;DHT22;1652;51.318;6.202;2023-06-14T07:10:50;27.10;1.00
3281;DHT22;1652;51.318;6.202;2023-06-14T07:13:17;27.00;1.00
3281;DHT22;1652;51.318;6.202;2023-06-14T07:15:44;27.50;1.00
3281;DHT22;1652;51.318;6.202;2023-06-14T07:18:11;27.90;1.00
3281;DHT22;1652;51.318;6.202;2023-06-14T07:20:41;28.30;1.00
3281;DHT22;1652;51.318;6.202;2023-06-14T07:23:09;28.40;1.00
3281;DHT22;1652;51.318;6.202;2023-06-14T07:25:37;28.90;1.00
3281;DHT22;1652;51.318;6.202;2023-06-14T07:28:04;28.80;1.00
3281;DHT22;1652;51.318;6.202;2023-06-14T07:30:31;28.60;1.00
3281;DHT22;1652;51.318;6.202;2023-06-14T07:32:58;28.10;1.00
3281;DHT22;1652;51.318;6.202;2023-06-14T07:35:25;28.40;1.00
3281;DHT22;1652;51.318;6.202;2023-06-14T07:37:52;28.90;1.00
3281;DHT22;1652;51.318;6.202;2023-06-14T07:40:19;28.70;1.00
3281;DHT22;1652;51.318;6.202;2023-06-14T07:42:46;28.30;1.00
3281;DHT22;1652;51.318;6.202;2023-06-14T07:45:13;28.00;1.00
3281;DHT22;1652;51.318;6.202;2023-06-14T07:47:41;28.60;1.00
3281;DHT22;1652;51.318;6.202;2023-06-14T07:50:09;28.30;1.00
3281;DHT22;1652;51.318;6.202;2023-06-14T07:52:36;29.00;1.00
3281;DHT22;1652;51.318;6.202;2023-06-14T07:55:04;29.50;1.00
3281;DHT22;1652;51.318;6.202;2023-06-14T07:57:32;29.50;1.00
3281;DHT22;1652;51.318;6.202;2023-06-14T07:59:59;28.90;1.00
3281;DHT22;1652;51.318;6.202;2023-06-14T08:02:26;28.70;1.00
3281;DHT22;1652;51.318;6.202;2023-06-14T08:04:53;28.70;1.00
3281;DHT22;1652;51.318;6.202;2023-06-14T08:07:20;28.60;1.00
3281;DHT22;1652;51.318;6.202;2023-06-14T08:09:47;28.10;1.00
3281;DHT22;1652;51.318;6.202;2023-06-14T08:12:14;28.60;1.00
3281;DHT22;1652;51.318;6.202;2023-06-14T08:14:42;28.70;1.00
3281;DHT22;1652;51.318;6.202;2023-06-14T08:17:09;28.20;1.00
3281;DHT22;1652;51.318;6.202;2023-06-14T08:19:36;28.10;1.00
3281;DHT22;1652;51.318;6.202;2023-06-14T08:22:03;28.40;1.00
3281;DHT22;1652;51.318;6.202;2023-06-14T08:24:30;28.40;1.00
3281;DHT22;1652;51.318;6.202;2023-06-14T08:26:57;28.20;1.00
3281;DHT22;1652;51.318;6.202;2023-06-14T08:29:27;28.30;1.00
3281;DHT22;1652;51.318;6.202;2023-06-14T08:31:56;28.60;1.00
3281;DHT22;1652;51.318;6.202;2023-06-14T08:34:23;28.30;1.00
3281;DHT22;1652;51.318;6.202;2023-06-14T08:36:50;28.30;1.00
3281;DHT22;1652;51.318;6.202;2023-06-14T08:39:17;28.70;1.00
3281;DHT22;1652;51.318;6.202;2023-06-14T08:41:46;28.00;1.00
3281;DHT22;1652;51.318;6.202;2023-06-14T08:44:18;27.50;1.00
3281;DHT22;1652;51.318;6.202;2023-06-14T08:46:45;27.60;1.00
3281;DHT22;1652;51.318;6.202;2023-06-14T08:49:16;27.90;1.00
3281;DHT22;1652;51.318;6.202;2023-06-14T08:51:44;27.90;1.00
3281;DHT22;1652;51.318;6.202;2023-06-14T08:54:11;27.80;1.00
3281;DHT22;1652;51.318;6.202;2023-06-14T08:56:40;27.80;1.00
3281;DHT22;1652;51.318;6.202;2023-06-14T08:59:09;28.00;1.00
3281;DHT22;1652;51.318;6.202;2023-06-14T09:01:36;27.80;1.00
3281;DHT22;1652;51.318;6.202;2023-06-14T09:04:04;28.00;1.00
3281;DHT22;1652;51.318;6.202;2023-06-14T09:06:34;28.20;1.00
3281;DHT22;1652;51.318;6.202;2023-06-14T09:09:03;28.10;1.00
3281;DHT22;1652;51.318;6.202;2023-06-14T09:11:31;27.30;1.00
3281;DHT22;1652;51.318;6.202;2023-06-14T09:13:58;27.20;1.00
3281;DHT22;1652;51.318;6.202;2023-06-14T09:16:25;27.60;1.00
3281;DHT22;1652;51.318;6.202;2023-06-14T09:18:53;27.30;1.00
3281;DHT22;1652;51.318;6.202;2023-06-14T09:21:20;27.30;1.00
3281;DHT22;1652;51.318;6.202;2023-06-14T09:23:48;27.40;1.00
3281;DHT22;1652;51.318;6.202;2023-06-14T09:26:17;27.60;1.00
3281;DHT22;1652;51.318;6.202;2023-06-14T09:28:45;28.00;1.00
3281;DHT22;1652;51.318;6.202;2023-06-14T09:31:13;28.50;1.00
3281;DHT22;1652;51.318;6.202;2023-06-14T09:33:42;28.00;1.00
3281;DHT22;1652;51.318;6.202;2023-06-14T09:36:21;28.00;1.00
3281;DHT22;1652;51.318;6.202;2023-06-14T09:39:06;28.60;1.00
3281;DHT22;1652;51.318;6.202;2023-06-14T09:41:40;28.60;1.00
3281;DHT22;1652;51.318;6.202;2023-06-14T09:44:08;28.60;1.00
3281;DHT22;1652;51.318;6.202;2023-06-14T09:46:43;28.20;1.00
3281;DHT22;1652;51.318;6.202;2023-06-14T09:49:10;28.20;1.00
3281;DHT22;1652;51.318;6.202;2023-06-14T09:51:45;27.40;1.00
3281;DHT22;1652;51.318;6.202;2023-06-14T09:54:16;26.60;1.00
3281;DHT22;1652;51.318;6.202;2023-06-14T09:56:48;26.00;1.00
3281;DHT22;1652;51.318;6.202;2023-06-14T09:59:22;25.60;1.00
3281;DHT22;1652;51.318;6.202;2023-06-14T10:01:58;24.90;1.00
3281;DHT22;1652;51.318;6.202;2023-06-14T10:04:27;25.20;1.00
3281;DHT22;1652;51.318;6.202;2023-06-14T10:06:56;25.00;1.00
3281;DHT22;1652;51.318;6.202;2023-06-14T10:09:23;24.80;1.00
3281;DHT22;1652;51.318;6.202;2023-06-14T10:11:51;24.80;1.00
3281;DHT22;1652;51.318;6.202;2023-06-14T10:14:19;24.70;1.00
3281;DHT22;1652;51.318;6.202;2023-06-14T10:16:56;24.10;1.00
3281;DHT22;1652;51.318;6.202;2023-06-14T10:19:48;24.20;1.00
3281;DHT22;1652;51.318;6.202;2023-06-14T10:22:30;24.30;1.00
3281;DHT22;1652;51.318;6.202;2023-06-14T10:24:59;24.10;1.00
3281;DHT22;1652;51.318;6.202;2023-06-14T10:27:26;24.00;1.00
3281;DHT22;1652;51.318;6.202;2023-06-14T10:32:24;24.00;1.00
3281;DHT22;1652;51.318;6.202;2023-06-14T10:35:04;24.00;1.00
3281;DHT22;1652;51.318;6.202;2023-06-14T10:37:32;24.00;1.00
3281;DHT22;1652;51.318;6.202;2023-06-14T10:39:59;23.80;1.00
3281;DHT22;1652;51.318;6.202;2023-06-14T10:42:32;23.60;1.00
3281;DHT22;1652;51.318;6.202;2023-06-14T10:45:00;23.60;1.00
3281;DHT22;1652;51.318;6.202;2023-06-14T10:47:34;23.60;1.00
3281;DHT22;1652;51.318;6.202;2023-06-14T10:52:39;23.50;1.00
3281;DHT22;1652;51.318;6.202;2023-06-14T10:55:09;23.50;1.00
3281;DHT22;1652;51.318;6.202;2023-06-14T10:57:47;23.30;1.00
3281;DHT22;1652;51.318;6.202;2023-06-14T11:00:21;23.30;1.00
3281;DHT22;1652;51.318;6.202;2023-06-14T11:05:30;23.50;1.00
3281;DHT22;1652;51.318;6.202;2023-06-14T11:11:00;23.70;1.00
3281;DHT22;1652;51.318;6.202;2023-06-14T11:13:27;23.70;1.00
3281;DHT22;1652;51.318;6.202;2023-06-14T11:15:58;23.60;1.00
3281;DHT22;1652;51.318;6.202;2023-06-14T11:18:25;23.70;1.00
3281;DHT22;1652;51.318;6.202;2023-06-14T11:20:54;23.40;1.00
3281;DHT22;1652;51.318;6.202;2023-06-14T11:23:22;23.50;1.00
3281;DHT22;1652;51.318;6.202;2023-06-14T11:25:53;23.50;1.00
3281;DHT22;1652;51.318;6.202;2023-06-14T11:28:20;23.50;1.00
3281;DHT22;1652;51.318;6.202;2023-06-14T11:31:01;23.60;1.00
3281;DHT22;1652;51.318;6.202;2023-06-14T11:33:28;23.50;1.00
3281;DHT22;1652;51.318;6.202;2023-06-14T11:38:36;23.40;1.00
3281;DHT22;1652;51.318;6.202;2023-06-14T11:41:04;23.30;1.00
3281;DHT22;1652;51.318;6.202;2023-06-14T11:43:31;23.50;1.00
3281;DHT22;1652;51.318;6.202;2023-06-14T11:46:00;23.60;1.00
3281;DHT22;1652;51.318;6.202;2023-06-14T11:48:41;23.40;1.00
3281;DHT22;1652;51.318;6.202;2023-06-14T11:51:08;23.30;1.00
3281;DHT22;1652;51.318;6.202;2023-06-14T11:53:35;23.40;1.00
3281;DHT22;1652;51.318;6.202;2023-06-14T11:56:03;23.70;1.00
3281;DHT22;1652;51.318;6.202;2023-06-14T11:58:30;23.90;1.00
3281;DHT22;1652;51.318;6.202;2023-06-14T12:00:57;23.90;1.00
3281;DHT22;1652;51.318;6.202;2023-06-14T12:03:25;23.90;1.00
3281;DHT22;1652;51.318;6.202;2023-06-14T12:06:07;23.70;1.00
3281;DHT22;1652;51.318;6.202;2023-06-14T12:08:36;23.50;1.00
3281;DHT22;1652;51.318;6.202;2023-06-14T12:11:13;23.60;1.00
3281;DHT22;1652;51.318;6.202;2023-06-14T12:13:43;23.70;1.00
3281;DHT22;1652;51.318;6.202;2023-06-14T12:16:11;23.70;1.00
3281;DHT22;1652;51.318;6.202;2023-06-14T12:18:39;23.80;1.00
3281;DHT22;1652;51.318;6.202;2023-06-14T12:21:08;23.70;1.00
3281;DHT22;1652;51.318;6.202;2023-06-14T12:23:46;23.70;1.00
3281;DHT22;1652;51.318;6.202;2023-06-14T12:26:18;23.70;1.00
3281;DHT22;1652;51.318;6.202;2023-06-14T12:28:46;23.60;1.00
3281;DHT22;1652;51.318;6.202;2023-06-14T12:31:15;23.50;1.00
3281;DHT22;1652;51.318;6.202;2023-06-14T12:33:42;23.60;1.00
3281;DHT22;1652;51.318;6.202;2023-06-14T12:38:37;23.60;1.00
3281;DHT22;1652;51.318;6.202;2023-06-14T12:41:04;23.70;1.00
3281;DHT22;1652;51.318;6.202;2023-06-14T12:43:31;23.70;1.00
3281;DHT22;1652;51.318;6.202;2023-06-14T12:45:59;23.80;1.00
3281;DHT22;1652;51.318;6.202;2023-06-14T12:48:26;23.80;1.00
3281;DHT22;1652;51.318;6.202;2023-06-14T12:50:54;23.70;1.00
3281;DHT22;1652;51.318;6.202;2023-06-14T12:53:21;23.80;1.00
3281;DHT22;1652;51.318;6.202;2023-06-14T12:55:47;23.80;1.00
3281;DHT22;1652;51.318;6.202;2023-06-14T12:58:15;23.80;1.00
3281;DHT22;1652;51.318;6.202;2023-06-14T13:00:43;23.90;1.00
3281;DHT22;1652;51.318;6.202;2023-06-14T13:03:10;23.80;1.00
3281;DHT22;1652;51.318;6.202;2023-06-14T13:05:38;23.80;1.00
3281;DHT22;1652;51.318;6.202;2023-06-14T13:08:07;23.80;1.00
3281;DHT22;1652;51.318;6.202;2023-06-14T13:10:37;23.90;1.00
3281;DHT22;1652;51.318;6.202;2023-06-14T13:13:05;24.00;1.00
3281;DHT22;1652;51.318;6.202;2023-06-14T13:15:31;23.90;1.00
3281;DHT22;1652;51.318;6.202;2023-06-14T13:17:58;23.70;1.00
3281;DHT22;1652;51.318;6.202;2023-06-14T13:20:25;23.80;1.00
3281;DHT22;1652;51.318;6.202;2023-06-14T13:22:52;23.90;1.00
3281;DHT22;1652;51.318;6.202;2023-06-14T13:25:19;23.90;1.00
3281;DHT22;1652;51.318;6.202;2023-06-14T13:27:46;24.00;1.00
3281;DHT22;1652;51.318;6.202;2023-06-14T13:30:13;23.90;1.00
3281;DHT22;1652;51.318;6.202;2023-06-14T13:32:43;23.90;1.00
3281;DHT22;1652;51.318;6.202;2023-06-14T13:35:10;24.00;1.00
3281;DHT22;1652;51.318;6.202;2023-06-14T13:37:36;24.00;1.00
3281;DHT22;1652;51.318;6.202;2023-06-14T13:40:04;24.00;1.00
3281;DHT22;1652;51.318;6.202;2023-06-14T13:42:31;24.00;1.00
3281;DHT22;1652;51.318;6.202;2023-06-14T13:44:58;24.00;1.00
3281;DHT22;1652;51.318;6.202;2023-06-14T13:47:25;24.10;1.00
3281;DHT22;1652;51.318;6.202;2023-06-14T13:49:52;24.10;1.00
3281;DHT22;1652;51.318;6.202;2023-06-14T13:52:19;24.10;1.00
3281;DHT22;1652;51.318;6.202;2023-06-14T13:54:46;24.10;1.00
3281;DHT22;1652;51.318;6.202;2023-06-14T13:57:15;24.00;1.00
3281;DHT22;1652;51.318;6.202;2023-06-14T13:59:43;24.00;1.00
3281;DHT22;1652;51.318;6.202;2023-06-14T14:02:13;24.20;1.00
3281;DHT22;1652;51.318;6.202;2023-06-14T14:04:40;24.30;1.00
3281;DHT22;1652;51.318;6.202;2023-06-14T14:07:07;24.10;1.00
3281;DHT22;1652;51.318;6.202;2023-06-14T14:09:35;24.10;1.00
3281;DHT22;1652;51.318;6.202;2023-06-14T14:12:02;24.00;1.00
3281;DHT22;1652;51.318;6.202;2023-06-14T14:14:31;24.20;1.00
3281;DHT22;1652;51.318;6.202;2023-06-14T14:16:58;24.00;1.00
3281;DHT22;1652;51.318;6.202;2023-06-14T14:19:26;24.00;1.00
3281;DHT22;1652;51.318;6.202;2023-06-14T14:21:53;24.10;1.00
3281;DHT22;1652;51.318;6.202;2023-06-14T14:24:20;24.10;1.00
3281;DHT22;1652;51.318;6.202;2023-06-14T14:26:47;24.10;1.00
3281;DHT22;1652;51.318;6.202;2023-06-14T14:29:16;24.20;1.00
3281;DHT22;1652;51.318;6.202;2023-06-14T14:31:43;24.20;1.00
3281;DHT22;1652;51.318;6.202;2023-06-14T14:34:11;24.10;1.00
3281;DHT22;1652;51.318;6.202;2023-06-14T14:36:37;24.20;1.00
3281;DHT22;1652;51.318;6.202;2023-06-14T14:39:09;24.30;1.00
3281;DHT22;1652;51.318;6.202;2023-06-14T14:41:36;24.30;1.00
3281;DHT22;1652;51.318;6.202;2023-06-14T14:44:07;24.30;1.00
3281;DHT22;1652;51.318;6.202;2023-06-14T14:46:34;24.40;1.00
3281;DHT22;1652;51.318;6.202;2023-06-14T14:49:02;24.30;1.00
3281;DHT22;1652;51.318;6.202;2023-06-14T14:51:29;24.30;1.00
3281;DHT22;1652;51.318;6.202;2023-06-14T14:53:56;24.30;1.00
3281;DHT22;1652;51.318;6.202;2023-06-14T14:56:27;24.30;1.00
3281;DHT22;1652;51.318;6.202;2023-06-14T14:58:58;24.50;1.00
3281;DHT22;1652;51.318;6.202;2023-06-14T15:01:25;24.70;1.00
3281;DHT22;1652;51.318;6.202;2023-06-14T15:03:55;24.60;1.00
3281;DHT22;1652;51.318;6.202;2023-06-14T15:06:26;24.60;1.00
3281;DHT22;1652;51.318;6.202;2023-06-14T15:08:53;24.60;1.00
3281;DHT22;1652;51.318;6.202;2023-06-14T15:11:20;24.50;1.00
3281;DHT22;1652;51.318;6.202;2023-06-14T15:13:47;24.50;1.00
3281;DHT22;1652;51.318;6.202;2023-06-14T15:16:15;24.60;1.00
3281;DHT22;1652;51.318;6.202;2023-06-14T15:18:42;24.60;1.00
3281;DHT22;1652;51.318;6.202;2023-06-14T15:21:09;24.40;1.00
3281;DHT22;1652;51.318;6.202;2023-06-14T15:23:36;24.40;1.00
3281;DHT22;1652;51.318;6.202;2023-06-14T15:26:03;24.50;1.00
3281;DHT22;1652;51.318;6.202;2023-06-14T15:28:30;24.50;1.00
3281;DHT22;1652;51.318;6.202;2023-06-14T15:30:59;24.50;1.00
3281;DHT22;1652;51.318;6.202;2023-06-14T15:33:27;24.60;1.00
3281;DHT22;1652;51.318;6.202;2023-06-14T15:38:23;24.50;1.00
3281;DHT22;1652;51.318;6.202;2023-06-14T15:40:49;24.40;1.00
3281;DHT22;1652;51.318;6.202;2023-06-14T15:43:18;24.40;1.00
3281;DHT22;1652;51.318;6.202;2023-06-14T15:45:45;24.40;1.00
3281;DHT22;1652;51.318;6.202;2023-06-14T15:48:12;24.60;1.00
3281;DHT22;1652;51.318;6.202;2023-06-14T15:50:39;24.60;1.00
3281;DHT22;1652;51.318;6.202;2023-06-14T15:53:06;24.50;1.00
3281;DHT22;1652;51.318;6.202;2023-06-14T15:55:33;24.60;1.00
3281;DHT22;1652;51.318;6.202;2023-06-14T15:58:00;24.60;1.00
3281;DHT22;1652;51.318;6.202;2023-06-14T16:00:26;24.60;1.00
3281;DHT22;1652;51.318;6.202;2023-06-14T16:02:53;24.60;1.00
3281;DHT22;1652;51.318;6.202;2023-06-14T16:05:21;24.60;1.00
3281;DHT22;1652;51.318;6.202;2023-06-14T16:07:47;24.50;1.00
3281;DHT22;1652;51.318;6.202;2023-06-14T16:10:14;24.50;1.00
3281;DHT22;1652;51.318;6.202;2023-06-14T16:12:42;24.50;1.00
3281;DHT22;1652;51.318;6.202;2023-06-14T16:15:09;24.40;1.00
3281;DHT22;1652;51.318;6.202;2023-06-14T16:17:36;24.40;1.00
3281;DHT22;1652;51.318;6.202;2023-06-14T16:20:03;24.30;1.00
3281;DHT22;1652;51.318;6.202;2023-06-14T16:22:31;24.20;1.00
3281;DHT22;1652;51.318;6.202;2023-06-14T16:24:57;24.20;1.00
3281;DHT22;1652;51.318;6.202;2023-06-14T16:27:24;24.30;1.00
3281;DHT22;1652;51.318;6.202;2023-06-14T16:29:51;24.40;1.00
3281;DHT22;1652;51.318;6.202;2023-06-14T16:32:19;24.40;1.00
3281;DHT22;1652;51.318;6.202;2023-06-14T16:34:46;24.40;1.00
3281;DHT22;1652;51.318;6.202;2023-06-14T16:37:13;24.40;1.00
3281;DHT22;1652;51.318;6.202;2023-06-14T16:39:40;24.50;1.00
3281;DHT22;1652;51.318;6.202;2023-06-14T16:42:07;24.50;1.00
3281;DHT22;1652;51.318;6.202;2023-06-14T16:44:34;24.30;1.00
3281;DHT22;1652;51.318;6.202;2023-06-14T16:47:01;24.30;1.00